sensor_id;sensor_type;location;lat;lon;timestamp;P1;durP1;ratioP1;P2;durP2;ratioP2
22201;SDS011;11266;51.522;6.302;2022-07-23T00:00:14;4.68;;;2.33;;
22201;SDS011;11266;51.522;6.302;2022-07-23T00:01:00;5.13;;;3.03;;
22201;SDS011;11266;51.522;6.302;2022-07-23T00:01:46;6.93;;;2.65;;
22201;SDS011;11266;51.522;6.302;2022-07-23T00:02:32;3.97;;;2.25;;
22201;SDS011;11266;51.522;6.302;2022-07-23T00:03:18;5.45;;;2.20;;
22201;SDS011;11266;51.522;6.302;2022-07-23T00:04:04;3.67;;;2.17;;
22201;SDS011;11266;51.522;6.302;2022-07-23T00:04:50;3.60;;;2.20;;
22201;SDS011;11266;51.522;6.302;2022-07-23T00:05:37;3.13;;;2.40;;
22201;SDS011;11266;51.522;6.302;2022-07-23T00:06:23;3.85;;;2.20;;
22201;SDS011;11266;51.522;6.302;2022-07-23T00:07:09;5.05;;;2.55;;
22201;SDS011;11266;51.522;6.302;2022-07-23T00:07:55;5.20;;;2.42;;
22201;SDS011;11266;51.522;6.302;2022-07-23T00:08:41;3.85;;;2.25;;
22201;SDS011;11266;51.522;6.302;2022-07-23T00:09:27;6.53;;;2.53;;
22201;SDS011;11266;51.522;6.302;2022-07-23T00:10:16;4.43;;;2.38;;
22201;SDS011;11266;51.522;6.302;2022-07-23T00:11:02;4.95;;;2.53;;
22201;SDS011;11266;51.522;6.302;2022-07-23T00:11:48;9.48;;;2.67;;
22201;SDS011;11266;51.522;6.302;2022-07-23T00:12:34;7.57;;;2.92;;
22201;SDS011;11266;51.522;6.302;2022-07-23T00:13:22;5.20;;;2.72;;
22201;SDS011;11266;51.522;6.302;2022-07-23T00:14:08;9.00;;;2.55;;
22201;SDS011;11266;51.522;6.302;2022-07-23T00:14:54;3.78;;;2.25;;
22201;SDS011;11266;51.522;6.302;2022-07-23T00:15:40;6.40;;;2.70;;
22201;SDS011;11266;51.522;6.302;2022-07-23T00:16:26;3.58;;;2.08;;
22201;SDS011;11266;51.522;6.302;2022-07-23T00:17:12;4.30;;;2.45;;
22201;SDS011;11266;51.522;6.302;2022-07-23T00:17:59;7.88;;;2.33;;
22201;SDS011;11266;51.522;6.302;2022-07-23T00:18:45;4.53;;;2.50;;
22201;SDS011;11266;51.522;6.302;2022-07-23T00:19:31;5.10;;;2.30;;
22201;SDS011;11266;51.522;6.302;2022-07-23T00:20:17;3.45;;;2.13;;
22201;SDS011;11266;51.522;6.302;2022-07-23T00:21:03;4.03;;;2.25;;
22201;SDS011;11266;51.522;6.302;2022-07-23T00:21:49;4.72;;;1.73;;
22201;SDS011;11266;51.522;6.302;2022-07-23T00:22:35;7.53;;;2.50;;
22201;SDS011;11266;51.522;6.302;2022-07-23T00:23:24;4.20;;;2.33;;
22201;SDS011;11266;51.522;6.302;2022-07-23T00:24:10;4.68;;;2.42;;
22201;SDS011;11266;51.522;6.302;2022-07-23T00:24:58;5.65;;;2.50;;
22201;SDS011;11266;51.522;6.302;2022-07-23T00:25:44;4.78;;;2.42;;
22201;SDS011;11266;51.522;6.302;2022-07-23T00:26:30;5.85;;;2.55;;
22201;SDS011;11266;51.522;6.302;2022-07-23T00:27:16;4.68;;;2.33;;
22201;SDS011;11266;51.522;6.302;2022-07-23T00:28:02;3.60;;;2.20;;
22201;SDS011;11266;51.522;6.302;2022-07-23T00:28:51;4.40;;;2.45;;
22201;SDS011;11266;51.522;6.302;2022-07-23T00:29:37;3.97;;;2.20;;
22201;SDS011;11266;51.522;6.302;2022-07-23T00:30:23;5.43;;;2.50;;
22201;SDS011;11266;51.522;6.302;2022-07-23T00:31:10;5.65;;;2.42;;
22201;SDS011;11266;51.522;6.302;2022-07-23T00:31:56;3.97;;;2.17;;
22201;SDS011;11266;51.522;6.302;2022-07-23T00:32:45;7.47;;;2.65;;
22201;SDS011;11266;51.522;6.302;2022-07-23T00:33:34;14.60;;;2.67;;
22201;SDS011;11266;51.522;6.302;2022-07-23T00:34:20;11.07;;;2.53;;
22201;SDS011;11266;51.522;6.302;2022-07-23T00:35:06;4.22;;;2.20;;
22201;SDS011;11266;51.522;6.302;2022-07-23T00:35:52;7.15;;;2.38;;
22201;SDS011;11266;51.522;6.302;2022-07-23T00:36:38;7.32;;;2.47;;
22201;SDS011;11266;51.522;6.302;2022-07-23T00:37:24;7.93;;;2.78;;
22201;SDS011;11266;51.522;6.302;2022-07-23T00:38:10;8.57;;;2.97;;
22201;SDS011;11266;51.522;6.302;2022-07-23T00:38:56;5.43;;;2.60;;
22201;SDS011;11266;51.522;6.302;2022-07-23T00:39:43;3.00;;;1.88;;
22201;SDS011;11266;51.522;6.302;2022-07-23T00:40:29;8.95;;;2.33;;
22201;SDS011;11266;51.522;6.302;2022-07-23T00:41:15;4.07;;;2.30;;
22201;SDS011;11266;51.522;6.302;2022-07-23T00:42:01;5.07;;;2.17;;
22201;SDS011;11266;51.522;6.302;2022-07-23T00:42:48;4.97;;;2.42;;
22201;SDS011;11266;51.522;6.302;2022-07-23T00:43:34;3.38;;;2.20;;
22201;SDS011;11266;51.522;6.302;2022-07-23T00:44:21;3.72;;;1.83;;
22201;SDS011;11266;51.522;6.302;2022-07-23T00:45:07;4.25;;;2.38;;
22201;SDS011;11266;51.522;6.302;2022-07-23T00:45:54;5.43;;;2.17;;
22201;SDS011;11266;51.522;6.302;2022-07-23T00:46:44;5.80;;;2.55;;
22201;SDS011;11266;51.522;6.302;2022-07-23T00:47:31;5.10;;;2.35;;
22201;SDS011;11266;51.522;6.302;2022-07-23T00:48:17;7.20;;;3.17;;
22201;SDS011;11266;51.522;6.302;2022-07-23T00:49:03;3.22;;;2.05;;
22201;SDS011;11266;51.522;6.302;2022-07-23T00:49:49;4.03;;;2.17;;
22201;SDS011;11266;51.522;6.302;2022-07-23T00:50:35;5.50;;;2.30;;
22201;SDS011;11266;51.522;6.302;2022-07-23T00:51:21;4.82;;;2.10;;
22201;SDS011;11266;51.522;6.302;2022-07-23T00:52:07;2.90;;;1.90;;
22201;SDS011;11266;51.522;6.302;2022-07-23T00:52:53;4.43;;;2.13;;
22201;SDS011;11266;51.522;6.302;2022-07-23T00:53:39;3.67;;;1.80;;
22201;SDS011;11266;51.522;6.302;2022-07-23T00:54:26;4.28;;;1.90;;
22201;SDS011;11266;51.522;6.302;2022-07-23T00:55:12;2.63;;;1.70;;
22201;SDS011;11266;51.522;6.302;2022-07-23T00:55:58;4.03;;;2.35;;
22201;SDS011;11266;51.522;6.302;2022-07-23T00:56:45;4.40;;;2.15;;
22201;SDS011;11266;51.522;6.302;2022-07-23T00:57:31;2.92;;;1.90;;
22201;SDS011;11266;51.522;6.302;2022-07-23T00:58:17;6.30;;;2.55;;
22201;SDS011;11266;51.522;6.302;2022-07-23T00:59:05;4.25;;;2.30;;
22201;SDS011;11266;51.522;6.302;2022-07-23T00:59:51;6.28;;;2.42;;
22201;SDS011;11266;51.522;6.302;2022-07-23T01:00:37;4.05;;;2.33;;
22201;SDS011;11266;51.522;6.302;2022-07-23T01:01:23;6.18;;;2.40;;
22201;SDS011;11266;51.522;6.302;2022-07-23T01:02:09;4.57;;;2.40;;
22201;SDS011;11266;51.522;6.302;2022-07-23T01:02:55;3.28;;;1.88;;
22201;SDS011;11266;51.522;6.302;2022-07-23T01:03:41;7.50;;;2.00;;
22201;SDS011;11266;51.522;6.302;2022-07-23T01:04:27;4.40;;;2.30;;
22201;SDS011;11266;51.522;6.302;2022-07-23T01:05:13;3.92;;;2.15;;
22201;SDS011;11266;51.522;6.302;2022-07-23T01:06:02;5.43;;;2.55;;
22201;SDS011;11266;51.522;6.302;2022-07-23T01:06:48;3.95;;;2.00;;
22201;SDS011;11266;51.522;6.302;2022-07-23T01:07:35;4.53;;;2.35;;
22201;SDS011;11266;51.522;6.302;2022-07-23T01:08:21;4.43;;;2.30;;
22201;SDS011;11266;51.522;6.302;2022-07-23T01:09:07;5.65;;;2.25;;
22201;SDS011;11266;51.522;6.302;2022-07-23T01:09:54;3.10;;;2.17;;
22201;SDS011;11266;51.522;6.302;2022-07-23T01:10:40;4.25;;;2.20;;
22201;SDS011;11266;51.522;6.302;2022-07-23T01:11:26;5.57;;;2.10;;
22201;SDS011;11266;51.522;6.302;2022-07-23T01:12:12;4.88;;;2.20;;
22201;SDS011;11266;51.522;6.302;2022-07-23T01:12:59;4.40;;;2.03;;
22201;SDS011;11266;51.522;6.302;2022-07-23T01:13:45;3.50;;;2.10;;
22201;SDS011;11266;51.522;6.302;2022-07-23T01:14:31;3.05;;;2.10;;
22201;SDS011;11266;51.522;6.302;2022-07-23T01:15:17;3.10;;;1.90;;
22201;SDS011;11266;51.522;6.302;2022-07-23T01:16:03;5.30;;;2.42;;
22201;SDS011;11266;51.522;6.302;2022-07-23T01:16:50;3.65;;;2.03;;
22201;SDS011;11266;51.522;6.302;2022-07-23T01:17:36;3.03;;;1.75;;
22201;SDS011;11266;51.522;6.302;2022-07-23T01:18:22;3.28;;;1.80;;
22201;SDS011;11266;51.522;6.302;2022-07-23T01:19:08;3.30;;;1.83;;
22201;SDS011;11266;51.522;6.302;2022-07-23T01:19:54;3.53;;;1.88;;
22201;SDS011;11266;51.522;6.302;2022-07-23T01:20:40;4.20;;;2.08;;
22201;SDS011;11266;51.522;6.302;2022-07-23T01:21:26;4.38;;;2.10;;
22201;SDS011;11266;51.522;6.302;2022-07-23T01:22:13;4.30;;;1.90;;
22201;SDS011;11266;51.522;6.302;2022-07-23T01:23:00;3.67;;;1.92;;
22201;SDS011;11266;51.522;6.302;2022-07-23T01:23:46;2.13;;;1.58;;
22201;SDS011;11266;51.522;6.302;2022-07-23T01:24:32;3.08;;;1.98;;
22201;SDS011;11266;51.522;6.302;2022-07-23T01:25:18;2.72;;;1.90;;
22201;SDS011;11266;51.522;6.302;2022-07-23T01:26:05;6.25;;;2.00;;
22201;SDS011;11266;51.522;6.302;2022-07-23T01:26:51;3.70;;;1.85;;
22201;SDS011;11266;51.522;6.302;2022-07-23T01:27:37;2.25;;;1.70;;
22201;SDS011;11266;51.522;6.302;2022-07-23T01:28:23;3.58;;;1.77;;
22201;SDS011;11266;51.522;6.302;2022-07-23T01:29:09;7.30;;;2.00;;
22201;SDS011;11266;51.522;6.302;2022-07-23T01:29:55;4.20;;;1.88;;
22201;SDS011;11266;51.522;6.302;2022-07-23T01:30:42;3.10;;;1.80;;
22201;SDS011;11266;51.522;6.302;2022-07-23T01:31:28;8.90;;;2.95;;
22201;SDS011;11266;51.522;6.302;2022-07-23T01:32:14;5.82;;;2.35;;
22201;SDS011;11266;51.522;6.302;2022-07-23T01:33:00;3.22;;;2.00;;
22201;SDS011;11266;51.522;6.302;2022-07-23T01:33:46;5.07;;;2.05;;
22201;SDS011;11266;51.522;6.302;2022-07-23T01:34:32;5.53;;;2.15;;
22201;SDS011;11266;51.522;6.302;2022-07-23T01:35:18;5.05;;;2.45;;
22201;SDS011;11266;51.522;6.302;2022-07-23T01:36:05;3.78;;;2.10;;
22201;SDS011;11266;51.522;6.302;2022-07-23T01:36:51;5.80;;;2.17;;
22201;SDS011;11266;51.522;6.302;2022-07-23T01:37:37;5.97;;;2.15;;
22201;SDS011;11266;51.522;6.302;2022-07-23T01:38:23;5.53;;;2.60;;
22201;SDS011;11266;51.522;6.302;2022-07-23T01:39:09;6.60;;;2.40;;
22201;SDS011;11266;51.522;6.302;2022-07-23T01:39:55;4.55;;;2.13;;
22201;SDS011;11266;51.522;6.302;2022-07-23T01:40:42;4.78;;;2.05;;
22201;SDS011;11266;51.522;6.302;2022-07-23T01:41:28;4.88;;;2.05;;
22201;SDS011;11266;51.522;6.302;2022-07-23T01:42:14;6.95;;;2.28;;
22201;SDS011;11266;51.522;6.302;2022-07-23T01:43:00;5.95;;;1.77;;
22201;SDS011;11266;51.522;6.302;2022-07-23T01:43:48;4.72;;;2.20;;
22201;SDS011;11266;51.522;6.302;2022-07-23T01:44:34;4.40;;;2.00;;
22201;SDS011;11266;51.522;6.302;2022-07-23T01:45:20;4.28;;;2.30;;
22201;SDS011;11266;51.522;6.302;2022-07-23T01:46:06;6.85;;;2.88;;
22201;SDS011;11266;51.522;6.302;2022-07-23T01:47:00;5.93;;;2.50;;
22201;SDS011;11266;51.522;6.302;2022-07-23T01:47:46;4.10;;;2.67;;
22201;SDS011;11266;51.522;6.302;2022-07-23T01:48:35;4.18;;;2.53;;
22201;SDS011;11266;51.522;6.302;2022-07-23T01:49:23;3.85;;;1.92;;
22201;SDS011;11266;51.522;6.302;2022-07-23T01:50:09;3.92;;;2.17;;
22201;SDS011;11266;51.522;6.302;2022-07-23T01:50:55;5.28;;;2.55;;
22201;SDS011;11266;51.522;6.302;2022-07-23T01:51:41;5.30;;;2.30;;
22201;SDS011;11266;51.522;6.302;2022-07-23T01:52:44;4.35;;;2.70;;
22201;SDS011;11266;51.522;6.302;2022-07-23T01:53:30;4.22;;;2.42;;
22201;SDS011;11266;51.522;6.302;2022-07-23T01:54:17;3.65;;;2.25;;
22201;SDS011;11266;51.522;6.302;2022-07-23T01:55:03;3.15;;;2.13;;
22201;SDS011;11266;51.522;6.302;2022-07-23T01:55:50;4.00;;;2.25;;
22201;SDS011;11266;51.522;6.302;2022-07-23T01:56:36;4.57;;;2.45;;
22201;SDS011;11266;51.522;6.302;2022-07-23T01:57:22;3.60;;;2.00;;
22201;SDS011;11266;51.522;6.302;2022-07-23T01:58:09;5.00;;;2.13;;
22201;SDS011;11266;51.522;6.302;2022-07-23T01:58:55;4.93;;;2.35;;
22201;SDS011;11266;51.522;6.302;2022-07-23T01:59:41;3.05;;;2.00;;
22201;SDS011;11266;51.522;6.302;2022-07-23T02:00:28;4.63;;;2.25;;
22201;SDS011;11266;51.522;6.302;2022-07-23T02:01:14;4.10;;;2.15;;
22201;SDS011;11266;51.522;6.302;2022-07-23T02:02:00;5.75;;;2.42;;
22201;SDS011;11266;51.522;6.302;2022-07-23T02:02:48;5.95;;;2.70;;
22201;SDS011;11266;51.522;6.302;2022-07-23T02:03:34;4.68;;;2.28;;
22201;SDS011;11266;51.522;6.302;2022-07-23T02:04:20;3.10;;;2.20;;
22201;SDS011;11266;51.522;6.302;2022-07-23T02:05:07;5.20;;;2.60;;
22201;SDS011;11266;51.522;6.302;2022-07-23T02:05:56;5.30;;;2.15;;
22201;SDS011;11266;51.522;6.302;2022-07-23T02:06:42;4.68;;;2.30;;
22201;SDS011;11266;51.522;6.302;2022-07-23T02:07:28;3.13;;;2.15;;
22201;SDS011;11266;51.522;6.302;2022-07-23T02:08:33;6.72;;;2.30;;
22201;SDS011;11266;51.522;6.302;2022-07-23T02:09:20;3.88;;;2.25;;
22201;SDS011;11266;51.522;6.302;2022-07-23T02:10:06;3.55;;;2.30;;
22201;SDS011;11266;51.522;6.302;2022-07-23T02:10:52;2.97;;;2.08;;
22201;SDS011;11266;51.522;6.302;2022-07-23T02:11:39;4.72;;;2.70;;
22201;SDS011;11266;51.522;6.302;2022-07-23T12:06:07;3.85;;;1.27;;
22201;SDS011;11266;51.522;6.302;2022-07-23T12:06:53;3.58;;;1.45;;
22201;SDS011;11266;51.522;6.302;2022-07-23T12:07:40;3.85;;;1.60;;
22201;SDS011;11266;51.522;6.302;2022-07-23T12:08:28;2.08;;;1.50;;
22201;SDS011;11266;51.522;6.302;2022-07-23T12:09:14;3.78;;;1.33;;
22201;SDS011;11266;51.522;6.302;2022-07-23T12:10:03;3.28;;;1.65;;
22201;SDS011;11266;51.522;6.302;2022-07-23T12:10:49;2.97;;;1.75;;
22201;SDS011;11266;51.522;6.302;2022-07-23T12:11:35;4.07;;;1.58;;
22201;SDS011;11266;51.522;6.302;2022-07-23T12:12:21;2.60;;;1.58;;
22201;SDS011;11266;51.522;6.302;2022-07-23T12:13:09;4.15;;;1.45;;
22201;SDS011;11266;51.522;6.302;2022-07-23T12:13:56;4.03;;;1.83;;
22201;SDS011;11266;51.522;6.302;2022-07-23T12:14:53;2.42;;;1.35;;
22201;SDS011;11266;51.522;6.302;2022-07-23T12:15:40;6.07;;;1.38;;
22201;SDS011;11266;51.522;6.302;2022-07-23T12:16:27;2.17;;;1.40;;
22201;SDS011;11266;51.522;6.302;2022-07-23T12:17:13;2.17;;;1.55;;
22201;SDS011;11266;51.522;6.302;2022-07-23T12:18:01;3.67;;;1.58;;
22201;SDS011;11266;51.522;6.302;2022-07-23T12:18:48;5.03;;;1.80;;
22201;SDS011;11266;51.522;6.302;2022-07-23T12:19:36;5.60;;;1.42;;
22201;SDS011;11266;51.522;6.302;2022-07-23T12:20:26;1.90;;;1.38;;
22201;SDS011;11266;51.522;6.302;2022-07-23T12:21:12;2.72;;;1.52;;
22201;SDS011;11266;51.522;6.302;2022-07-23T12:21:59;2.55;;;1.40;;
22201;SDS011;11266;51.522;6.302;2022-07-23T12:22:46;6.45;;;1.50;;
22201;SDS011;11266;51.522;6.302;2022-07-23T12:23:32;4.40;;;2.03;;
22201;SDS011;11266;51.522;6.302;2022-07-23T12:24:18;2.53;;;1.40;;
22201;SDS011;11266;51.522;6.302;2022-07-23T12:25:06;1.27;;;1.10;;
22201;SDS011;11266;51.522;6.302;2022-07-23T12:25:53;2.00;;;1.20;;
22201;SDS011;11266;51.522;6.302;2022-07-23T12:26:59;3.78;;;1.42;;
22201;SDS011;11266;51.522;6.302;2022-07-23T12:27:45;3.38;;;1.75;;
22201;SDS011;11266;51.522;6.302;2022-07-23T12:28:32;2.85;;;1.55;;
22201;SDS011;11266;51.522;6.302;2022-07-23T12:29:18;3.13;;;1.70;;
22201;SDS011;11266;51.522;6.302;2022-07-23T12:31:09;5.03;;;1.73;;
22201;SDS011;11266;51.522;6.302;2022-07-23T12:31:55;4.28;;;1.77;;
22201;SDS011;11266;51.522;6.302;2022-07-23T12:32:44;3.10;;;1.60;;
22201;SDS011;11266;51.522;6.302;2022-07-23T12:34:17;3.42;;;1.70;;
22201;SDS011;11266;51.522;6.302;2022-07-23T12:35:04;3.13;;;1.60;;
22201;SDS011;11266;51.522;6.302;2022-07-23T12:35:52;2.92;;;1.30;;
22201;SDS011;11266;51.522;6.302;2022-07-23T12:36:38;2.15;;;1.17;;
22201;SDS011;11266;51.522;6.302;2022-07-23T12:37:27;2.13;;;1.33;;
22201;SDS011;11266;51.522;6.302;2022-07-23T12:38:18;3.40;;;1.40;;
22201;SDS011;11266;51.522;6.302;2022-07-23T12:39:04;2.60;;;1.52;;
22201;SDS011;11266;51.522;6.302;2022-07-23T12:39:50;4.50;;;1.60;;
22201;SDS011;11266;51.522;6.302;2022-07-23T12:40:58;2.63;;;1.63;;
22201;SDS011;11266;51.522;6.302;2022-07-23T12:41:52;4.97;;;1.80;;
22201;SDS011;11266;51.522;6.302;2022-07-23T12:42:42;6.00;;;1.88;;
22201;SDS011;11266;51.522;6.302;2022-07-23T12:43:29;2.58;;;1.33;;
22201;SDS011;11266;51.522;6.302;2022-07-23T12:44:15;4.97;;;1.73;;
22201;SDS011;11266;51.522;6.302;2022-07-23T12:45:08;2.15;;;1.35;;
22201;SDS011;11266;51.522;6.302;2022-07-23T12:45:57;3.95;;;1.60;;
22201;SDS011;11266;51.522;6.302;2022-07-23T12:46:51;2.53;;;1.60;;
22201;SDS011;11266;51.522;6.302;2022-07-23T12:47:53;4.75;;;1.95;;
22201;SDS011;11266;51.522;6.302;2022-07-23T12:49:35;2.22;;;1.40;;
22201;SDS011;11266;51.522;6.302;2022-07-23T12:50:31;4.25;;;1.73;;
22201;SDS011;11266;51.522;6.302;2022-07-23T12:51:18;4.40;;;1.60;;
22201;SDS011;11266;51.522;6.302;2022-07-23T12:52:14;3.03;;;1.50;;
22201;SDS011;11266;51.522;6.302;2022-07-23T12:53:08;2.50;;;1.20;;
22201;SDS011;11266;51.522;6.302;2022-07-23T12:53:57;2.85;;;1.55;;
22201;SDS011;11266;51.522;6.302;2022-07-23T12:54:43;6.68;;;1.40;;
22201;SDS011;11266;51.522;6.302;2022-07-23T12:55:30;3.15;;;1.85;;
22201;SDS011;11266;51.522;6.302;2022-07-23T12:56:17;3.30;;;1.40;;
22201;SDS011;11266;51.522;6.302;2022-07-23T12:57:03;4.10;;;1.83;;
22201;SDS011;11266;51.522;6.302;2022-07-23T12:57:50;3.95;;;1.80;;
22201;SDS011;11266;51.522;6.302;2022-07-23T12:58:39;4.78;;;1.75;;
22201;SDS011;11266;51.522;6.302;2022-07-23T12:59:26;2.38;;;1.35;;
22201;SDS011;11266;51.522;6.302;2022-07-23T13:00:16;3.50;;;1.60;;
22201;SDS011;11266;51.522;6.302;2022-07-23T13:01:05;5.93;;;2.83;;
22201;SDS011;11266;51.522;6.302;2022-07-23T13:01:55;4.15;;;1.88;;
22201;SDS011;11266;51.522;6.302;2022-07-23T13:02:45;1.83;;;1.30;;
22201;SDS011;11266;51.522;6.302;2022-07-23T13:03:39;3.88;;;1.50;;
22201;SDS011;11266;51.522;6.302;2022-07-23T13:04:27;4.93;;;2.20;;
22201;SDS011;11266;51.522;6.302;2022-07-23T13:05:13;3.53;;;1.60;;
22201;SDS011;11266;51.522;6.302;2022-07-23T13:06:00;2.78;;;1.48;;
22201;SDS011;11266;51.522;6.302;2022-07-23T13:06:47;4.22;;;1.85;;
22201;SDS011;11266;51.522;6.302;2022-07-23T13:07:34;6.80;;;1.40;;
22201;SDS011;11266;51.522;6.302;2022-07-23T13:08:20;4.13;;;1.60;;
22201;SDS011;11266;51.522;6.302;2022-07-23T13:09:07;4.25;;;1.60;;
22201;SDS011;11266;51.522;6.302;2022-07-23T13:09:53;6.43;;;1.55;;
22201;SDS011;11266;51.522;6.302;2022-07-23T13:10:39;2.70;;;1.30;;
22201;SDS011;11266;51.522;6.302;2022-07-23T13:11:28;4.68;;;2.03;;
22201;SDS011;11266;51.522;6.302;2022-07-23T13:12:14;2.70;;;1.60;;
22201;SDS011;11266;51.522;6.302;2022-07-23T13:13:00;3.08;;;1.42;;
22201;SDS011;11266;51.522;6.302;2022-07-23T13:13:46;3.60;;;1.58;;
22201;SDS011;11266;51.522;6.302;2022-07-23T13:14:32;3.50;;;1.67;;
22201;SDS011;11266;51.522;6.302;2022-07-23T13:15:18;3.25;;;1.70;;
22201;SDS011;11266;51.522;6.302;2022-07-23T13:16:04;3.67;;;1.55;;
22201;SDS011;11266;51.522;6.302;2022-07-23T13:16:51;4.03;;;1.85;;
22201;SDS011;11266;51.522;6.302;2022-07-23T13:17:37;5.97;;;1.77;;
22201;SDS011;11266;51.522;6.302;2022-07-23T13:18:23;3.67;;;1.40;;
22201;SDS011;11266;51.522;6.302;2022-07-23T13:19:09;2.20;;;1.35;;
22201;SDS011;11266;51.522;6.302;2022-07-23T13:19:55;2.97;;;1.35;;
22201;SDS011;11266;51.522;6.302;2022-07-23T13:20:42;4.63;;;1.98;;
22201;SDS011;11266;51.522;6.302;2022-07-23T13:21:28;4.47;;;2.03;;
22201;SDS011;11266;51.522;6.302;2022-07-23T13:22:14;2.50;;;1.42;;
22201;SDS011;11266;51.522;6.302;2022-07-23T13:23:00;3.80;;;1.65;;
22201;SDS011;11266;51.522;6.302;2022-07-23T13:23:47;3.72;;;1.40;;
22201;SDS011;11266;51.522;6.302;2022-07-23T13:24:33;3.67;;;1.70;;
22201;SDS011;11266;51.522;6.302;2022-07-23T13:25:19;3.17;;;1.25;;
22201;SDS011;11266;51.522;6.302;2022-07-23T13:26:05;2.72;;;1.30;;
22201;SDS011;11266;51.522;6.302;2022-07-23T13:26:51;2.88;;;1.70;;
22201;SDS011;11266;51.522;6.302;2022-07-23T13:27:37;2.83;;;1.58;;
22201;SDS011;11266;51.522;6.302;2022-07-23T13:28:23;2.00;;;1.40;;
22201;SDS011;11266;51.522;6.302;2022-07-23T13:29:09;4.82;;;1.40;;
22201;SDS011;11266;51.522;6.302;2022-07-23T13:29:55;3.10;;;1.38;;
22201;SDS011;11266;51.522;6.302;2022-07-23T13:30:42;2.30;;;1.30;;
22201;SDS011;11266;51.522;6.302;2022-07-23T13:31:28;3.58;;;1.45;;
22201;SDS011;11266;51.522;6.302;2022-07-23T13:32:14;5.93;;;2.08;;
22201;SDS011;11266;51.522;6.302;2022-07-23T13:33:02;6.88;;;1.80;;
22201;SDS011;11266;51.522;6.302;2022-07-23T13:33:48;3.25;;;1.70;;
22201;SDS011;11266;51.522;6.302;2022-07-23T13:34:34;5.68;;;2.03;;
22201;SDS011;11266;51.522;6.302;2022-07-23T13:35:21;3.60;;;1.90;;
22201;SDS011;11266;51.522;6.302;2022-07-23T13:36:07;3.30;;;1.67;;
22201;SDS011;11266;51.522;6.302;2022-07-23T13:36:53;2.03;;;1.30;;
22201;SDS011;11266;51.522;6.302;2022-07-23T13:37:39;3.40;;;1.45;;
22201;SDS011;11266;51.522;6.302;2022-07-23T13:38:25;3.35;;;1.70;;
22201;SDS011;11266;51.522;6.302;2022-07-23T13:39:11;2.25;;;1.50;;
22201;SDS011;11266;51.522;6.302;2022-07-23T13:39:57;3.67;;;1.60;;
22201;SDS011;11266;51.522;6.302;2022-07-23T13:40:45;3.05;;;1.50;;
22201;SDS011;11266;51.522;6.302;2022-07-23T13:41:31;2.65;;;1.50;;
22201;SDS011;11266;51.522;6.302;2022-07-23T13:42:17;3.58;;;1.63;;
22201;SDS011;11266;51.522;6.302;2022-07-23T13:43:06;2.92;;;1.65;;
22201;SDS011;11266;51.522;6.302;2022-07-23T13:43:53;3.47;;;1.90;;
22201;SDS011;11266;51.522;6.302;2022-07-23T13:44:40;4.03;;;1.80;;
22201;SDS011;11266;51.522;6.302;2022-07-23T13:45:26;2.08;;;1.45;;
22201;SDS011;11266;51.522;6.302;2022-07-23T13:46:15;2.47;;;1.60;;
22201;SDS011;11266;51.522;6.302;2022-07-23T13:47:01;6.53;;;1.90;;
22201;SDS011;11266;51.522;6.302;2022-07-23T13:47:47;4.47;;;1.80;;
22201;SDS011;11266;51.522;6.302;2022-07-23T13:48:33;3.30;;;1.52;;
22201;SDS011;11266;51.522;6.302;2022-07-23T13:49:19;2.20;;;1.60;;
22201;SDS011;11266;51.522;6.302;2022-07-23T13:50:06;4.55;;;1.75;;
22201;SDS011;11266;51.522;6.302;2022-07-23T13:50:52;3.78;;;1.67;;
22201;SDS011;11266;51.522;6.302;2022-07-23T13:51:38;3.50;;;1.77;;
22201;SDS011;11266;51.522;6.302;2022-07-23T13:52:24;2.95;;;1.45;;
22201;SDS011;11266;51.522;6.302;2022-07-23T13:53:14;3.65;;;2.03;;
22201;SDS011;11266;51.522;6.302;2022-07-23T13:54:00;4.85;;;1.75;;
22201;SDS011;11266;51.522;6.302;2022-07-23T13:54:47;2.17;;;1.52;;
22201;SDS011;11266;51.522;6.302;2022-07-23T13:55:33;2.80;;;1.70;;
22201;SDS011;11266;51.522;6.302;2022-07-23T13:56:19;3.80;;;1.90;;
22201;SDS011;11266;51.522;6.302;2022-07-23T13:57:05;3.13;;;1.65;;
22201;SDS011;11266;51.522;6.302;2022-07-23T13:57:52;5.10;;;1.40;;
22201;SDS011;11266;51.522;6.302;2022-07-23T13:58:38;2.65;;;1.25;;
22201;SDS011;11266;51.522;6.302;2022-07-23T13:59:25;3.47;;;1.73;;
22201;SDS011;11266;51.522;6.302;2022-07-23T14:00:11;5.05;;;2.10;;
22201;SDS011;11266;51.522;6.302;2022-07-23T14:00:57;4.30;;;1.98;;
22201;SDS011;11266;51.522;6.302;2022-07-23T14:01:43;2.65;;;1.50;;
22201;SDS011;11266;51.522;6.302;2022-07-23T14:02:32;4.75;;;1.77;;
22201;SDS011;11266;51.522;6.302;2022-07-23T14:03:18;5.22;;;1.88;;
22201;SDS011;11266;51.522;6.302;2022-07-23T14:04:05;4.22;;;1.73;;
22201;SDS011;11266;51.522;6.302;2022-07-23T14:04:51;4.03;;;1.60;;
22201;SDS011;11266;51.522;6.302;2022-07-23T14:05:38;4.05;;;1.65;;
22201;SDS011;11266;51.522;6.302;2022-07-23T14:06:24;4.60;;;2.08;;
22201;SDS011;11266;51.522;6.302;2022-07-23T14:07:10;3.65;;;1.33;;
22201;SDS011;11266;51.522;6.302;2022-07-23T14:08:01;4.53;;;1.77;;
22201;SDS011;11266;51.522;6.302;2022-07-23T14:08:47;2.40;;;1.55;;
22201;SDS011;11266;51.522;6.302;2022-07-23T14:09:33;4.05;;;2.10;;
22201;SDS011;11266;51.522;6.302;2022-07-23T14:10:20;3.58;;;1.50;;
22201;SDS011;11266;51.522;6.302;2022-07-23T14:11:06;2.70;;;1.48;;
22201;SDS011;11266;51.522;6.302;2022-07-23T14:11:52;3.92;;;2.03;;
22201;SDS011;11266;51.522;6.302;2022-07-23T14:12:38;3.13;;;1.50;;
22201;SDS011;11266;51.522;6.302;2022-07-23T14:13:25;3.55;;;2.03;;
22201;SDS011;11266;51.522;6.302;2022-07-23T14:14:11;2.95;;;1.58;;
22201;SDS011;11266;51.522;6.302;2022-07-23T14:14:57;2.90;;;1.65;;
22201;SDS011;11266;51.522;6.302;2022-07-23T14:15:43;4.63;;;1.83;;
22201;SDS011;11266;51.522;6.302;2022-07-23T14:16:29;3.42;;;1.60;;
22201;SDS011;11266;51.522;6.302;2022-07-23T14:17:18;4.55;;;1.90;;
22201;SDS011;11266;51.522;6.302;2022-07-23T14:18:04;4.18;;;1.67;;
22201;SDS011;11266;51.522;6.302;2022-07-23T14:18:50;2.75;;;1.60;;
22201;SDS011;11266;51.522;6.302;2022-07-23T14:19:36;3.65;;;1.75;;
22201;SDS011;11266;51.522;6.302;2022-07-23T14:20:22;3.35;;;1.67;;
22201;SDS011;11266;51.522;6.302;2022-07-23T14:21:09;5.65;;;1.95;;
22201;SDS011;11266;51.522;6.302;2022-07-23T14:21:55;2.53;;;1.67;;
22201;SDS011;11266;51.522;6.302;2022-07-23T14:22:41;3.42;;;2.20;;
22201;SDS011;11266;51.522;6.302;2022-07-23T14:23:27;2.83;;;1.80;;
22201;SDS011;11266;51.522;6.302;2022-07-23T14:24:13;5.88;;;1.90;;
22201;SDS011;11266;51.522;6.302;2022-07-23T14:24:59;3.45;;;1.60;;
22201;SDS011;11266;51.522;6.302;2022-07-23T14:25:45;6.97;;;1.55;;
22201;SDS011;11266;51.522;6.302;2022-07-23T14:26:31;2.97;;;1.70;;
22201;SDS011;11266;51.522;6.302;2022-07-23T14:27:17;6.03;;;1.75;;
22201;SDS011;11266;51.522;6.302;2022-07-23T14:28:03;2.92;;;1.60;;
22201;SDS011;11266;51.522;6.302;2022-07-23T14:28:49;3.70;;;1.65;;
22201;SDS011;11266;51.522;6.302;2022-07-23T14:29:35;2.25;;;1.60;;
22201;SDS011;11266;51.522;6.302;2022-07-23T14:30:21;2.70;;;1.75;;
22201;SDS011;11266;51.522;6.302;2022-07-23T14:31:08;3.08;;;1.63;;
22201;SDS011;11266;51.522;6.302;2022-07-23T14:31:54;3.08;;;1.83;;
22201;SDS011;11266;51.522;6.302;2022-07-23T14:32:40;2.00;;;1.55;;
22201;SDS011;11266;51.522;6.302;2022-07-23T14:33:27;3.80;;;1.60;;
22201;SDS011;11266;51.522;6.302;2022-07-23T14:34:13;3.30;;;1.70;;
22201;SDS011;11266;51.522;6.302;2022-07-23T14:34:59;2.92;;;1.60;;
22201;SDS011;11266;51.522;6.302;2022-07-23T14:35:45;3.65;;;1.70;;
22201;SDS011;11266;51.522;6.302;2022-07-23T14:36:31;3.03;;;1.50;;
22201;SDS011;11266;51.522;6.302;2022-07-23T14:37:17;2.38;;;1.50;;
22201;SDS011;11266;51.522;6.302;2022-07-23T14:38:03;2.30;;;1.63;;
22201;SDS011;11266;51.522;6.302;2022-07-23T14:38:49;2.20;;;1.60;;
22201;SDS011;11266;51.522;6.302;2022-07-23T14:39:36;4.65;;;1.85;;